Terminal Aerodrome Forecast
Issued by NWS Mt. Holly, NJ

Home | Current Version | Previous Version | Text Only | Print | Product List | Glossary On
Versions: 1 2 3 4 5 6 7 8 9 10 11 12 13 14 15 16 17
786
FTUS41 KPHI 191514 AAA
TAFRDG
TAF AMD
KRDG 191514Z 1915/2012 29022G38KT P6SM BKN040
     FM191900 29016G29KT P6SM BKN040
     FM192200 28012G21KT P6SM SCT040
     FM200200 28011KT P6SM SKC=

USA.gov is the U.S. government's official web portal to all federal, state and local government web resources and services.